createdAt,value
2018-05-31T00:00:03.767Z,46.93
2018-05-31T00:02:32.229Z,44.53
2018-05-31T00:05:01.200Z,47.87
2018-05-31T00:07:30.608Z,50.00
2018-05-31T00:09:59.064Z,49.23
2018-05-31T00:12:27.754Z,48.93
2018-05-31T00:14:57.203Z,50.70
2018-05-31T00:17:25.663Z,51.67
2018-05-31T00:19:54.120Z,51.97
2018-05-31T00:22:22.710Z,51.67
2018-05-31T00:24:51.347Z,52.13
2018-05-31T00:27:20.587Z,53.47
2018-05-31T00:29:49.044Z,54.50
2018-05-31T00:32:17.495Z,54.13
2018-05-31T00:34:45.947Z,53.03
2018-05-31T00:37:15.353Z,55.97
2018-05-31T00:39:43.814Z,55.00
2018-05-31T00:42:12.267Z,55.47
2018-05-31T00:44:40.740Z,57.00
2018-05-31T00:47:09.222Z,58.57
2018-05-31T00:49:37.671Z,58.60
2018-05-31T00:52:07.086Z,59.57
2018-05-31T00:54:35.798Z,60.30
2018-05-31T00:57:03.919Z,56.13
2018-05-31T00:59:32.565Z,59.13
2018-05-31T01:02:01.903Z,61.33
2018-05-31T01:04:30.384Z,59.13
2018-05-31T01:06:59.378Z,51.43
2018-05-31T01:09:27.830Z,55.97
2018-05-31T01:11:56.513Z,58.80
2018-05-31T01:14:25.167Z,59.07
2018-05-31T01:16:53.615Z,61.07
2018-05-31T01:19:22.084Z,58.63
2018-05-31T01:21:50.745Z,59.53
2018-05-31T01:24:19.422Z,59.23
2018-05-31T01:26:48.074Z,62.47
2018-05-31T01:29:16.699Z,59.47
2018-05-31T01:31:45.311Z,58.87
2018-05-31T01:34:13.428Z,61.70
2018-05-31T01:36:42.073Z,59.43
2018-05-31T01:39:18.011Z,61.17
2018-05-31T01:41:46.481Z,61.73
2018-05-31T01:44:15.122Z,61.87
2018-05-31T01:46:44.578Z,60.80
2018-05-31T01:49:13.211Z,63.43
2018-05-31T01:51:41.678Z,63.43
2018-05-31T01:54:10.288Z,64.00
2018-05-31T01:56:39.687Z,64.87
2018-05-31T01:59:09.099Z,62.70
2018-05-31T02:01:37.568Z,61.40
2018-05-31T02:04:06.026Z,62.20
2018-05-31T02:06:34.545Z,63.97
2018-05-31T02:09:03.100Z,65.40
2018-05-31T02:11:31.752Z,66.60
2018-05-31T02:14:00.247Z,63.70
2018-05-31T02:16:28.771Z,65.10
2018-05-31T02:18:57.800Z,64.60
2018-05-31T02:21:26.247Z,65.50
2018-05-31T02:23:54.710Z,66.80
2018-05-31T02:26:23.963Z,65.93
2018-05-31T02:28:52.422Z,65.80
2018-05-31T02:31:20.871Z,69.17
2018-05-31T02:33:49.510Z,69.13
2018-05-31T02:36:17.971Z,70.87
2018-05-31T02:38:46.768Z,65.80
2018-05-31T02:41:15.224Z,66.07
2018-05-31T02:43:44.442Z,68.40
2018-05-31T02:46:12.898Z,66.17
2018-05-31T02:48:41.565Z,64.43
2018-05-31T02:51:10.488Z,64.77
2018-05-31T02:53:38.945Z,66.93
2018-05-31T02:56:07.643Z,67.80
2018-05-31T02:58:37.859Z,65.37
2018-05-31T03:01:06.347Z,65.87
2018-05-31T03:03:34.807Z,67.10
2018-05-31T03:06:03.425Z,69.47
2018-05-31T03:08:31.882Z,65.13
2018-05-31T03:11:01.276Z,67.53
2018-05-31T03:13:30.382Z,66.87
2018-05-31T03:15:58.840Z,65.03
2018-05-31T03:18:27.351Z,67.13
2018-05-31T03:20:55.935Z,67.40
2018-05-31T03:23:24.568Z,69.87
2018-05-31T03:25:53.231Z,64.37
2018-05-31T03:28:21.698Z,64.00
2018-05-31T03:30:50.145Z,64.93
2018-05-31T03:33:18.807Z,62.57
2018-05-31T03:35:47.527Z,62.33
2018-05-31T03:38:15.984Z,64.53
2018-05-31T03:40:44.428Z,63.93
2018-05-31T03:43:13.774Z,62.27
2018-05-31T03:45:42.224Z,61.43
2018-05-31T03:48:11.622Z,62.50
2018-05-31T03:50:40.070Z,63.30
2018-05-31T03:53:08.724Z,66.90
2018-05-31T03:55:37.368Z,64.30
2018-05-31T03:58:06.583Z,64.50
2018-05-31T04:00:35.247Z,62.43
2018-05-31T04:03:05.367Z,60.57
2018-05-31T04:05:33.815Z,64.67
2018-05-31T04:08:02.282Z,62.07
2018-05-31T04:10:30.920Z,63.00
2018-05-31T04:12:59.275Z,61.60
2018-05-31T04:15:27.864Z,61.63
2018-05-31T04:17:56.507Z,58.80
2018-05-31T04:20:24.963Z,59.43
2018-05-31T04:22:53.413Z,56.77
2018-05-31T04:25:22.046Z,58.50
2018-05-31T04:27:50.505Z,58.40
2018-05-31T04:30:19.130Z,57.33
2018-05-31T04:32:47.613Z,57.90
2018-05-31T04:35:16.066Z,59.43
2018-05-31T04:37:44.710Z,57.10
2018-05-31T04:40:13.352Z,57.50
2018-05-31T04:42:41.803Z,57.57
2018-05-31T04:45:10.246Z,55.70
2018-05-31T04:47:38.702Z,53.67
2018-05-31T04:50:07.348Z,54.10
2018-05-31T04:52:35.800Z,53.20
2018-05-31T04:55:03.922Z,54.47
2018-05-31T04:57:33.159Z,53.97
2018-05-31T05:00:01.722Z,53.30
2018-05-31T05:02:32.763Z,52.57
2018-05-31T05:05:01.255Z,51.00
2018-05-31T05:07:29.855Z,51.67
2018-05-31T05:09:58.386Z,49.10
2018-05-31T05:12:26.863Z,49.20
2018-05-31T05:14:55.351Z,48.10
2018-05-31T05:17:24.574Z,47.53
2018-05-31T05:19:53.035Z,47.97
2018-05-31T05:22:21.491Z,47.60
2018-05-31T05:24:49.951Z,47.07
2018-05-31T05:27:18.404Z,44.80
2018-05-31T05:29:46.863Z,45.67
2018-05-31T05:32:15.120Z,45.13
2018-05-31T05:34:43.578Z,44.00
2018-05-31T05:37:12.030Z,44.37
2018-05-31T05:39:41.438Z,43.23
2018-05-31T05:42:09.898Z,42.67
2018-05-31T05:44:38.526Z,41.10
2018-05-31T05:47:06.979Z,41.97
2018-05-31T05:49:35.432Z,41.03
2018-05-31T05:52:03.406Z,41.97
2018-05-31T05:54:31.858Z,39.20
2018-05-31T05:57:00.314Z,40.17
2018-05-31T05:59:28.787Z,36.87
2018-05-31T06:01:57.219Z,39.43
2018-05-31T06:04:26.682Z,38.50
2018-05-31T06:06:55.311Z,35.40
2018-05-31T06:09:23.762Z,33.63
2018-05-31T06:11:52.224Z,33.13
2018-05-31T06:14:20.685Z,32.20
2018-05-31T06:16:49.326Z,31.33
2018-05-31T06:19:17.775Z,31.13
2018-05-31T06:21:45.887Z,29.53
2018-05-31T06:24:14.347Z,28.43
2018-05-31T06:26:43.759Z,23.77
2018-05-31T06:29:12.394Z,23.30
2018-05-31T06:31:41.659Z,22.80
2018-05-31T06:34:10.108Z,23.20
2018-05-31T06:36:38.562Z,22.90
2018-05-31T06:39:06.339Z,22.33
2018-05-31T06:41:35.367Z,22.37
2018-05-31T06:44:04.042Z,21.33
2018-05-31T06:46:33.056Z,21.12
2018-05-31T06:49:02.076Z,20.77
2018-05-31T06:51:31.107Z,21.42
2018-05-31T06:54:00.128Z,20.85
2018-05-31T06:56:29.151Z,21.50
2018-05-31T06:58:58.681Z,19.08
2018-05-31T07:01:27.702Z,20.02
2018-05-31T07:03:56.715Z,18.95
2018-05-31T07:06:26.701Z,17.30
2018-05-31T07:08:55.748Z,18.67
2018-05-31T07:11:26.171Z,17.75
2018-05-31T07:13:55.179Z,18.37
2018-05-31T07:16:24.184Z,19.45
2018-05-31T07:18:53.200Z,19.10
2018-05-31T07:21:23.025Z,18.92
2018-05-31T07:23:52.036Z,19.12
2018-05-31T07:26:21.060Z,17.15
2018-05-31T07:28:50.067Z,18.05
2018-05-31T07:31:19.082Z,18.67
2018-05-31T07:33:48.098Z,16.90
2018-05-31T07:36:16.779Z,17.05
2018-05-31T07:38:46.026Z,17.25
2018-05-31T07:41:15.174Z,19.02
2018-05-31T07:43:44.182Z,20.35
2018-05-31T07:46:13.183Z,19.62
2018-05-31T07:48:42.242Z,22.02
2018-05-31T07:51:11.280Z,19.23
2018-05-31T07:53:40.303Z,19.62
2018-05-31T07:56:10.075Z,18.40
2018-05-31T07:58:39.111Z,19.27
2018-05-31T08:01:08.131Z,20.73
2018-05-31T08:03:37.551Z,19.90
2018-05-31T08:06:06.582Z,20.40
2018-05-31T08:08:36.357Z,20.50
2018-05-31T08:11:05.840Z,21.35
2018-05-31T08:13:34.653Z,19.35
2018-05-31T08:16:04.676Z,20.45
2018-05-31T08:18:34.355Z,36.90
2018-05-31T08:21:03.366Z,54.50
2018-05-31T08:23:32.891Z,19.75
2018-05-31T08:26:01.642Z,22.62
2018-05-31T08:28:30.679Z,32.72
2018-05-31T08:31:00.225Z,20.08
2018-05-31T08:33:32.159Z,19.48
2018-05-31T08:36:01.210Z,20.83
2018-05-31T08:38:30.395Z,18.95
2018-05-31T08:41:00.235Z,19.10
2018-05-31T08:43:29.249Z,18.80
2018-05-31T08:45:59.323Z,17.83
2018-05-31T08:48:30.128Z,17.23
2018-05-31T08:50:58.556Z,16.50
2018-05-31T08:53:28.798Z,17.62
2018-05-31T08:55:57.828Z,17.23
2018-05-31T08:58:26.803Z,17.75
2018-05-31T09:00:56.103Z,18.45
2018-05-31T09:03:25.119Z,17.15
2018-05-31T09:05:54.678Z,16.92
2018-05-31T09:08:24.866Z,16.83
2018-05-31T09:10:55.703Z,15.35
2018-05-31T09:13:25.248Z,15.57
2018-05-31T09:15:54.266Z,13.88
2018-05-31T09:18:23.553Z,21.02
2018-05-31T09:20:52.578Z,62.95
2018-05-31T09:23:22.680Z,15.55
2018-05-31T09:25:53.283Z,13.40
2018-05-31T09:28:21.791Z,14.02
2018-05-31T09:30:50.798Z,12.95
2018-05-31T09:33:19.810Z,13.82
2018-05-31T09:35:51.741Z,66.07
2018-05-31T09:38:21.607Z,18.62
2018-05-31T09:40:51.179Z,12.80
2018-05-31T09:43:21.188Z,17.57
2018-05-31T09:45:50.747Z,35.58
2018-05-31T09:48:19.922Z,34.33
2018-05-31T09:50:48.691Z,11.73
2018-05-31T09:53:17.598Z,11.47
2018-05-31T09:55:46.051Z,11.00
2018-05-31T09:58:15.693Z,9.63
2018-05-31T10:00:45.564Z,9.97
2018-05-31T10:03:14.924Z,12.53
2018-05-31T10:05:44.411Z,12.47
2018-05-31T10:08:12.544Z,10.23
2018-05-31T10:10:42.819Z,9.90
2018-05-31T10:13:12.712Z,11.03
2018-05-31T10:15:42.634Z,9.93
2018-05-31T10:18:11.848Z,9.43
2018-05-31T10:20:40.363Z,9.50
2018-05-31T10:23:09.025Z,11.37
2018-05-31T10:25:38.863Z,10.50
2018-05-31T10:28:07.422Z,10.60
2018-05-31T10:30:36.647Z,12.83
2018-05-31T10:33:05.620Z,13.50
2018-05-31T10:35:34.091Z,12.53
2018-05-31T10:38:02.603Z,17.13
2018-05-31T10:40:33.200Z,11.97
2018-05-31T10:43:03.036Z,11.83
2018-05-31T10:45:35.300Z,12.97
2018-05-31T10:48:03.748Z,11.40
2018-05-31T10:50:33.739Z,11.20
2018-05-31T10:53:02.182Z,11.53
2018-05-31T10:55:31.472Z,12.20
2018-05-31T10:58:00.864Z,12.43
2018-05-31T11:00:29.148Z,11.40
2018-05-31T11:02:59.198Z,11.53
2018-05-31T11:05:28.162Z,11.67
2018-05-31T11:07:57.784Z,16.83
2018-05-31T11:10:26.770Z,24.93
2018-05-31T11:12:54.663Z,12.47
2018-05-31T11:15:24.010Z,11.90
2018-05-31T11:17:53.319Z,11.57
2018-05-31T11:20:22.227Z,12.67
2018-05-31T11:22:51.581Z,14.47
2018-05-31T11:25:21.089Z,12.13
2018-05-31T11:27:49.722Z,29.20
2018-05-31T11:30:18.174Z,17.97
2018-05-31T11:32:46.620Z,25.53
2018-05-31T11:35:14.739Z,25.30
2018-05-31T11:37:44.002Z,13.63
2018-05-31T11:40:12.453Z,15.03
2018-05-31T11:42:41.313Z,17.60
2018-05-31T11:45:09.477Z,10.80
2018-05-31T11:47:37.938Z,15.47
2018-05-31T11:50:14.916Z,9.50
2018-05-31T11:52:45.025Z,50.63
2018-05-31T11:55:14.091Z,12.37
2018-05-31T11:57:43.903Z,25.70
2018-05-31T12:00:12.369Z,104.67
2018-05-31T12:02:42.708Z,29.67
2018-05-31T12:05:11.155Z,11.53
2018-05-31T12:07:39.865Z,11.17
2018-05-31T12:10:08.535Z,12.97
2018-05-31T12:12:36.979Z,11.73
2018-05-31T12:15:08.323Z,15.20
2018-05-31T12:17:36.788Z,12.03
2018-05-31T12:20:06.257Z,9.93
2018-05-31T12:22:35.559Z,11.93
2018-05-31T12:25:03.681Z,10.70
2018-05-31T12:27:33.397Z,9.30
2018-05-31T12:30:01.839Z,9.90
2018-05-31T12:32:30.724Z,8.83
2018-05-31T12:35:00.966Z,13.23
2018-05-31T12:37:29.559Z,10.30
2018-05-31T12:39:59.390Z,15.03
2018-05-31T12:42:29.328Z,8.83
2018-05-31T12:44:57.775Z,9.17
2018-05-31T12:47:26.700Z,13.47
2018-05-31T12:49:55.151Z,10.67
2018-05-31T12:52:23.665Z,28.13
2018-05-31T12:54:53.068Z,14.77
2018-05-31T12:57:21.534Z,10.23
2018-05-31T12:59:50.138Z,9.87
2018-05-31T13:02:18.704Z,11.80
2018-05-31T13:04:46.584Z,10.27
2018-05-31T13:07:16.182Z,11.43
2018-05-31T13:09:44.695Z,13.07
2018-05-31T13:12:14.063Z,11.13
2018-05-31T13:14:43.016Z,10.23
2018-05-31T13:17:12.317Z,10.97
2018-05-31T13:19:40.763Z,28.23
2018-05-31T13:22:09.983Z,14.23
2018-05-31T13:24:38.464Z,12.73
2018-05-31T13:27:09.774Z,14.80
2018-05-31T13:29:38.266Z,10.97
2018-05-31T13:32:08.513Z,11.13
2018-05-31T13:34:37.083Z,10.90
2018-05-31T13:37:05.586Z,10.30
2018-05-31T13:39:34.780Z,11.53
2018-05-31T13:42:04.140Z,10.73
2018-05-31T13:44:32.919Z,10.27
2018-05-31T13:47:01.395Z,10.83
2018-05-31T13:49:32.168Z,10.53
2018-05-31T13:52:00.606Z,10.47
2018-05-31T13:54:30.105Z,10.40
2018-05-31T13:56:58.604Z,10.23
2018-05-31T13:59:27.820Z,10.57
2018-05-31T14:01:56.271Z,9.43
2018-05-31T14:04:25.259Z,9.70
2018-05-31T14:06:54.371Z,9.17
2018-05-31T14:09:22.863Z,10.03
2018-05-31T14:11:52.407Z,10.47
2018-05-31T14:14:21.595Z,11.73
2018-05-31T14:16:50.657Z,10.63
2018-05-31T14:19:19.134Z,9.07
2018-05-31T14:21:50.071Z,9.07
2018-05-31T14:24:20.787Z,10.83
2018-05-31T14:26:50.097Z,12.20
2018-05-31T14:29:19.762Z,10.90
2018-05-31T14:31:48.228Z,11.97
2018-05-31T14:34:16.861Z,10.90
2018-05-31T14:36:46.845Z,12.53
2018-05-31T14:39:14.975Z,11.13
2018-05-31T14:41:43.456Z,10.67
2018-05-31T14:44:12.470Z,13.13
2018-05-31T14:46:41.935Z,13.43
2018-05-31T14:49:11.528Z,13.43
2018-05-31T14:51:41.299Z,13.13
2018-05-31T14:54:11.251Z,11.17
2018-05-31T14:56:40.043Z,11.63
2018-05-31T14:59:08.179Z,11.87
2018-05-31T15:01:36.877Z,11.20
2018-05-31T15:04:05.070Z,12.33
2018-05-31T15:06:34.993Z,11.27
2018-05-31T15:09:02.875Z,11.10
2018-05-31T15:11:31.335Z,14.13
2018-05-31T15:14:01.207Z,56.57
2018-05-31T15:16:31.920Z,23.57
2018-05-31T15:19:01.376Z,23.03
2018-05-31T15:21:31.326Z,23.07
2018-05-31T15:24:02.352Z,26.20
2018-05-31T15:26:31.723Z,22.47
2018-05-31T15:29:01.027Z,22.33
2018-05-31T15:31:31.043Z,21.80
2018-05-31T15:34:00.951Z,22.13
2018-05-31T15:36:29.371Z,24.80
2018-05-31T15:38:57.255Z,23.67
2018-05-31T15:41:26.206Z,23.37
2018-05-31T15:43:56.359Z,23.60
2018-05-31T15:46:24.823Z,23.17
2018-05-31T15:48:52.977Z,21.87
2018-05-31T15:51:22.400Z,20.97
2018-05-31T15:53:52.436Z,23.17
2018-05-31T15:56:21.615Z,23.20
2018-05-31T15:58:49.479Z,20.50
2018-05-31T16:01:18.764Z,21.87
2018-05-31T16:03:47.839Z,20.50
2018-05-31T16:06:16.116Z,20.33
2018-05-31T16:08:45.029Z,23.40
2018-05-31T16:11:13.466Z,21.43
2018-05-31T16:13:42.725Z,20.17
2018-05-31T16:16:11.667Z,19.50
2018-05-31T16:18:40.499Z,19.30
2018-05-31T16:21:11.965Z,18.20
2018-05-31T16:23:41.327Z,17.50
2018-05-31T16:26:09.831Z,17.80
2018-05-31T16:28:37.808Z,17.63
2018-05-31T16:31:07.535Z,18.40
2018-05-31T16:33:38.219Z,15.87
2018-05-31T16:36:07.768Z,16.53
2018-05-31T16:38:36.215Z,16.33
2018-05-31T16:41:04.683Z,15.70
2018-05-31T16:43:35.247Z,17.10
2018-05-31T16:46:03.359Z,13.40
2018-05-31T16:48:33.751Z,13.50
2018-05-31T16:51:03.274Z,13.67
2018-05-31T16:53:32.146Z,14.43
2018-05-31T16:56:00.787Z,13.77
2018-05-31T16:58:29.318Z,13.27
2018-05-31T17:00:58.071Z,14.17
2018-05-31T17:03:26.894Z,13.60
2018-05-31T17:05:56.391Z,12.07
2018-05-31T17:08:26.143Z,13.10
2018-05-31T17:10:55.627Z,12.60
2018-05-31T17:13:24.841Z,13.00
2018-05-31T17:15:53.304Z,13.63
2018-05-31T17:18:23.387Z,13.93
2018-05-31T17:20:53.735Z,13.53
2018-05-31T17:23:22.206Z,13.93
2018-05-31T17:25:50.691Z,14.50
2018-05-31T17:28:20.195Z,14.20
2018-05-31T17:30:51.524Z,15.83
2018-05-31T17:33:19.980Z,20.33
2018-05-31T17:35:48.432Z,15.63
2018-05-31T17:38:16.871Z,18.60
2018-05-31T17:40:45.365Z,16.47
2018-05-31T17:43:14.668Z,16.97
2018-05-31T17:45:43.461Z,18.57
2018-05-31T17:48:11.913Z,17.07
2018-05-31T17:50:40.389Z,16.60
2018-05-31T17:53:09.157Z,19.27
2018-05-31T17:55:39.491Z,18.47
2018-05-31T17:58:09.331Z,23.90
2018-05-31T18:00:38.723Z,19.93
2018-05-31T18:03:07.207Z,20.97
2018-05-31T18:05:36.284Z,23.93
2018-05-31T18:08:04.219Z,19.80
2018-05-31T18:10:32.687Z,21.73
2018-05-31T18:13:02.154Z,20.90
2018-05-31T18:15:30.355Z,21.40
2018-05-31T18:17:59.434Z,21.53
2018-05-31T18:20:28.759Z,22.23
2018-05-31T18:22:56.887Z,23.57
2018-05-31T18:25:25.942Z,23.47
2018-05-31T18:27:56.013Z,21.73
2018-05-31T18:30:24.915Z,22.03
2018-05-31T18:32:53.847Z,22.60
2018-05-31T18:35:23.495Z,23.43
2018-05-31T18:37:52.683Z,24.57
2018-05-31T18:40:21.851Z,25.93
2018-05-31T18:42:50.004Z,23.53
2018-05-31T18:45:18.442Z,25.67
2018-05-31T18:47:47.414Z,26.10
2018-05-31T18:50:16.855Z,27.07
2018-05-31T18:52:45.643Z,26.67
2018-05-31T18:55:14.111Z,25.93
2018-05-31T18:57:42.627Z,28.67
2018-05-31T19:00:10.748Z,26.87
2018-05-31T19:02:39.965Z,27.40
2018-05-31T19:05:08.411Z,28.00
2018-05-31T19:07:36.850Z,29.60
2018-05-31T19:10:06.029Z,28.03
2018-05-31T19:12:40.932Z,29.17
2018-05-31T19:15:09.431Z,28.93
2018-05-31T19:17:41.307Z,28.47
2018-05-31T19:20:10.556Z,30.93
2018-05-31T19:22:39.975Z,27.77
2018-05-31T19:25:15.195Z,30.27
2018-05-31T19:27:45.299Z,31.10
2018-05-31T19:30:20.314Z,31.90
2018-05-31T19:32:50.572Z,32.80
2018-05-31T19:35:24.518Z,32.33
2018-05-31T19:37:56.228Z,32.43
2018-05-31T19:40:25.787Z,30.87
2018-05-31T19:43:01.476Z,32.67
2018-05-31T19:45:31.059Z,32.23
2018-05-31T19:48:00.805Z,33.50
2018-05-31T19:50:30.811Z,34.17
2018-05-31T19:53:05.251Z,33.70
2018-05-31T19:55:34.598Z,33.97
2018-05-31T19:58:09.787Z,33.47
2018-05-31T20:00:44.926Z,33.93
2018-05-31T20:03:19.136Z,33.97
2018-05-31T20:05:47.583Z,32.93
2018-05-31T20:08:17.424Z,33.37
2018-05-31T20:10:46.417Z,34.50
2018-05-31T20:13:15.839Z,33.43
2018-05-31T20:15:44.712Z,34.83
2018-05-31T20:18:13.770Z,34.97
2018-05-31T20:20:42.939Z,36.73
2018-05-31T20:23:12.741Z,34.60
2018-05-31T20:25:42.504Z,36.60
2018-05-31T20:28:11.613Z,38.93
2018-05-31T20:30:40.757Z,35.17
2018-05-31T20:33:10.439Z,35.23
2018-05-31T20:35:39.219Z,35.47
2018-05-31T20:38:08.547Z,36.50
2018-05-31T20:40:37.994Z,35.57
2018-05-31T20:43:07.475Z,36.63
2018-05-31T20:45:37.192Z,38.17
2018-05-31T20:48:05.689Z,37.83
2018-05-31T20:50:34.158Z,38.73
2018-05-31T20:53:02.269Z,36.73
2018-05-31T20:55:30.475Z,36.57
2018-05-31T20:57:58.597Z,36.37
2018-05-31T21:00:28.684Z,36.90
2018-05-31T21:02:57.235Z,39.10
2018-05-31T21:05:25.462Z,37.17
2018-05-31T21:07:54.879Z,37.30
2018-05-31T21:10:24.433Z,37.27
2018-05-31T21:12:54.195Z,39.47
2018-05-31T21:15:23.344Z,42.23
2018-05-31T21:17:52.387Z,41.60
2018-05-31T21:20:23.843Z,43.60
2018-05-31T21:22:54.162Z,42.20
2018-05-31T21:25:23.890Z,40.23
2018-05-31T21:27:52.351Z,43.27
2018-05-31T21:30:20.912Z,43.17
2018-05-31T21:32:50.691Z,41.57
2018-05-31T21:35:19.564Z,43.03
2018-05-31T21:37:48.812Z,43.50
2018-05-31T21:40:18.311Z,45.73
2018-05-31T21:42:46.820Z,47.00
2018-05-31T21:45:18.408Z,45.73
2018-05-31T21:47:48.063Z,45.67
2018-05-31T21:50:18.993Z,49.50
2018-05-31T21:52:47.467Z,49.23
2018-05-31T21:55:15.914Z,47.40
2018-05-31T21:57:45.381Z,48.83
2018-05-31T22:00:26.379Z,50.97
2018-05-31T22:02:56.270Z,49.73
2018-05-31T22:05:26.694Z,50.20
2018-05-31T22:07:55.160Z,52.10
2018-05-31T22:10:25.440Z,52.80
2018-05-31T22:12:53.335Z,49.53
2018-05-31T22:15:23.143Z,47.53
2018-05-31T22:17:52.766Z,42.83
2018-05-31T22:20:20.940Z,43.23
2018-05-31T22:22:50.220Z,48.17
2018-05-31T22:25:19.887Z,50.43
2018-05-31T22:27:48.574Z,51.37
2018-05-31T22:30:16.840Z,51.03
2018-05-31T22:32:44.991Z,52.97
2018-05-31T22:35:15.291Z,49.00
2018-05-31T22:37:44.741Z,48.13
2018-05-31T22:40:14.545Z,49.77
2018-05-31T22:42:43.476Z,51.00
2018-05-31T22:45:13.791Z,51.10
2018-05-31T22:47:41.944Z,52.43
2018-05-31T22:50:10.692Z,55.93
2018-05-31T22:52:40.502Z,53.60
2018-05-31T22:55:09.471Z,49.97
2018-05-31T22:57:39.195Z,47.40
2018-05-31T23:00:08.634Z,49.97
2018-05-31T23:02:38.254Z,52.73
2018-05-31T23:05:07.463Z,52.53
2018-05-31T23:07:36.267Z,53.50
2018-05-31T23:10:05.103Z,53.03
2018-05-31T23:12:34.806Z,51.93
2018-05-31T23:15:04.523Z,51.13
2018-05-31T23:17:34.096Z,52.30
2018-05-31T23:20:02.269Z,49.37
2018-05-31T23:22:30.967Z,52.47
2018-05-31T23:25:00.471Z,52.80
2018-05-31T23:27:30.772Z,53.80
2018-05-31T23:30:01.206Z,54.40
2018-05-31T23:32:29.685Z,56.07
2018-05-31T23:34:59.059Z,55.77
2018-05-31T23:37:28.552Z,58.07
2018-05-31T23:39:57.724Z,54.10
2018-05-31T23:42:27.935Z,57.30
2018-05-31T23:44:56.611Z,53.20
2018-05-31T23:47:26.287Z,53.73
2018-05-31T23:49:54.167Z,56.97
2018-05-31T23:52:24.108Z,56.40
2018-05-31T23:54:53.582Z,53.17
2018-05-31T23:57:23.266Z,55.63
2018-05-31T23:59:53.330Z,53.30
